Avel An Heol — FGPA — position and weather

sailwx.info

Track history (hours):
 
Tides and Currents Weather Stations Pressure Air Temp Water Temp Dewpoint Dewpoint Depression Visibility Wind Speed Wind Dir Waves Ship Positions

Avel An Heol

Last reported at 2017-Nov-17 15:56 UTC. Time now 2017-Nov-18 23:33 UTC.
Position N 47°47' W 004°18'.

Type: Fishing. MMSI: 228925000.

Date/timePositionNaut miles runAvg speedWind from/ knotsBaromVisibWave heightAir tempDewpointWater temp
2017-Nov-17 15:56N 47°47' W 004°18'4 9.2
2017-Nov-17 15:29N 47°44' W 004°21'5 9.1
2017-Nov-17 14:55N 47°39' W 004°25'21 4.5
2017-Nov-17 10:10N 47°22' W 004°44'0 1.2
2017-Nov-17 09:58N 47°22' W 004°43'2 3.0
2017-Nov-17 09:26N 47°24' W 004°43'4 3.0
2017-Nov-17 08:03N 47°28' W 004°41'20 6.6
2017-Nov-17 05:03N 47°43' W 004°23'1 9.3
2017-Nov-17 04:57N 47°44' W 004°22'4 0.3
2017-Nov-16 15:56N 47°47' W 004°17'4 8.2
2017-Nov-16 15:29N 47°47' W 004°23'5 9.7
2017-Nov-16 14:59N 47°50' W 004°29'4 7.4
2017-Nov-16 14:29N 47°52' W 004°34'2 3.5
2017-Nov-16 14:00N 47°53' W 004°36'2 3.4
2017-Nov-16 13:30N 47°53' W 004°38'2 3.3
2017-Nov-16 13:00N 47°53' W 004°41'1 2.0
2017-Nov-16 12:28N 47°53' W 004°42'2 3.4
2017-Nov-16 11:47N 47°52' W 004°39'1 3.5
2017-Nov-16 11:28N 47°52' W 004°37'2 3.6
2017-Nov-16 10:59N 47°51' W 004°35'2 3.5
2017-Nov-16 10:28N 47°50' W 004°33'0 1.0
2017-Nov-16 10:00N 47°50' W 004°33'2 3.0
2017-Nov-16 09:28N 47°51' W 004°35'1 2.8
2017-Nov-16 09:01N 47°52' W 004°36'1 2.0
2017-Nov-16 08:30N 47°53' W 004°36'1 1.7
2017-Nov-16 08:00N 47°52' W 004°37'2 3.0
2017-Nov-16 07:26N 47°52' W 004°39'1 2.8
2017-Nov-16 07:00N 47°53' W 004°41'1 1.9
2017-Nov-16 06:30N 47°53' W 004°42'2 2.9
2017-Nov-16 05:59N 47°52' W 004°40'2 3.4
2017-Nov-16 05:30N 47°52' W 004°38'3 6.1
2017-Nov-16 04:59N 47°51' W 004°33'5 8.6
2017-Nov-16 04:24N 47°49' W 004°27'3 8.3
2017-Nov-16 04:00N 47°47' W 004°23'4 7.1
2017-Nov-16 03:31N 47°47' W 004°18'1 0.2
2017-Nov-15 23:02N 47°48' W 004°17'0 0.0
2017-Nov-15 22:56N 47°48' W 004°17'1 0.2
2017-Nov-15 16:22N 47°47' W 004°18'3 9.0
2017-Nov-15 15:59N 47°44' W 004°16'9 4.2
2017-Nov-15 13:48N 47°37' W 004°06'2 1.3
2017-Nov-15 12:33N 47°37' W 004°04'5 3.0
2017-Nov-15 10:52N 47°34' W 003°58'1 2.2
2017-Nov-15 10:17N 47°35' W 003°57'1 2.3
2017-Nov-15 09:59N 47°35' W 003°56'2 3.0
2017-Nov-15 09:15N 47°34' W 003°53'1 3.0
2017-Nov-15 08:58N 47°33' W 003°52'0 0.8
2017-Nov-15 08:29N 47°33' W 003°52'2 3.4
2017-Nov-15 07:59N 47°34' W 003°54'1 2.7
2017-Nov-15 07:28N 47°34' W 003°56'11 5.8
2017-Nov-15 05:32N 47°41' W 004°09'2 8.6
2017-Nov-15 05:21N 47°42' W 004°11'3 8.9
2017-Nov-15 05:00N 47°44' W 004°15'4 7.2
2017-Nov-15 04:29N 47°47' W 004°17'1 0.3
2017-Nov-15 02:16N 47°48' W 004°17'1 0.1
2017-Nov-14 16:23N 47°47' W 004°18'21 3.3
2017-Nov-14 10:07N 47°33' W 003°54'0 3.5
2017-Nov-14 09:59N 47°33' W 003°54'1 1.6
2017-Nov-14 09:30N 47°34' W 003°53'1 2.8
2017-Nov-14 09:00N 47°34' W 003°51'2 3.4
2017-Nov-14 08:30N 47°33' W 003°53'1 2.8
2017-Nov-14 08:00N 47°34' W 003°55'1 2.0
2017-Nov-14 07:19N 47°34' W 003°57'14 7.0
2017-Nov-14 05:17N 47°43' W 004°13'3 8.3
2017-Nov-14 04:58N 47°45' W 004°16'  
2017-Nov-08 16:08N 47°47' W 004°17'1 9.4
2017-Nov-08 15:59N 47°46' W 004°19'4 7.5
2017-Nov-08 15:24N 47°48' W 004°25'4 8.8
2017-Nov-08 15:00N 47°52' W 004°26'2 3.0
2017-Nov-08 14:30N 47°53' W 004°26'2 3.1
2017-Nov-08 13:59N 47°55' W 004°28'1 1.6
2017-Nov-08 13:29N 47°54' W 004°27'1 3.1
2017-Nov-08 13:00N 47°54' W 004°29'1 2.9
2017-Nov-08 12:29N 47°55' W 004°27'1 1.6
2017-Nov-08 11:57N 47°54' W 004°29'1 1.4
2017-Nov-08 11:30N 47°55' W 004°29'1 2.9
2017-Nov-08 11:00N 47°54' W 004°27'2 3.0
2017-Nov-08 10:30N 47°54' W 004°29'1 2.3
2017-Nov-08 10:00N 47°55' W 004°28'1 2.1
2017-Nov-08 09:30N 47°54' W 004°27'1 2.6
2017-Nov-08 08:59N 47°55' W 004°29'1 2.6
2017-Nov-08 08:28N 47°54' W 004°27'1 2.7
2017-Nov-08 08:00N 47°54' W 004°29'1 2.5
2017-Nov-08 07:30N 47°55' W 004°28'2 2.6
2017-Nov-08 06:51N 47°53' W 004°27'1 3.0
2017-Nov-08 06:29N 47°53' W 004°28'1 2.6
2017-Nov-08 05:58N 47°51' W 004°27'2 4.2
2017-Nov-08 05:29N 47°50' W 004°26'4 7.5
2017-Nov-08 05:00N 47°46' W 004°23'4 0.3
2017-Nov-07 16:06N 47°47' W 004°17'1 9.0
2017-Nov-07 15:59N 47°47' W 004°18'  
Track history (hours):
 
Tides and Currents Weather Stations Pressure Air Temp Water Temp Dewpoint Dewpoint Depression Visibility Wind Speed Wind Dir Waves Ship Positions

Avel An Heol

Last reported at 2017-Nov-17 15:56 UTC. Time now 2017-Nov-18 23:33 UTC.
Position N 47°47' W 004°18'.

Type: Fishing. MMSI: 228925000.

Date/timePositionNaut miles runAvg speedWind from/ knotsBaromVisibWave heightAir tempDewpointWater temp
2017-Nov-17 15:56N 47°47' W 004°18'4 9.2
2017-Nov-17 15:29N 47°44' W 004°21'5 9.1
2017-Nov-17 14:55N 47°39' W 004°25'21 4.5
2017-Nov-17 10:10N 47°22' W 004°44'0 1.2
2017-Nov-17 09:58N 47°22' W 004°43'2 3.0
2017-Nov-17 09:26N 47°24' W 004°43'4 3.0
2017-Nov-17 08:03N 47°28' W 004°41'20 6.6
2017-Nov-17 05:03N 47°43' W 004°23'1 9.3
2017-Nov-17 04:57N 47°44' W 004°22'4 0.3
2017-Nov-16 15:56N 47°47' W 004°17'4 8.2
2017-Nov-16 15:29N 47°47' W 004°23'5 9.7
2017-Nov-16 14:59N 47°50' W 004°29'4 7.4
2017-Nov-16 14:29N 47°52' W 004°34'2 3.5
2017-Nov-16 14:00N 47°53' W 004°36'2 3.4
2017-Nov-16 13:30N 47°53' W 004°38'2 3.3
2017-Nov-16 13:00N 47°53' W 004°41'1 2.0
2017-Nov-16 12:28N 47°53' W 004°42'2 3.4
2017-Nov-16 11:47N 47°52' W 004°39'1 3.5
2017-Nov-16 11:28N 47°52' W 004°37'2 3.6
2017-Nov-16 10:59N 47°51' W 004°35'2 3.5
2017-Nov-16 10:28N 47°50' W 004°33'0 1.0
2017-Nov-16 10:00N 47°50' W 004°33'2 3.0
2017-Nov-16 09:28N 47°51' W 004°35'1 2.8
2017-Nov-16 09:01N 47°52' W 004°36'1 2.0
2017-Nov-16 08:30N 47°53' W 004°36'1 1.7
2017-Nov-16 08:00N 47°52' W 004°37'2 3.0
2017-Nov-16 07:26N 47°52' W 004°39'1 2.8
2017-Nov-16 07:00N 47°53' W 004°41'1 1.9
2017-Nov-16 06:30N 47°53' W 004°42'2 2.9
2017-Nov-16 05:59N 47°52' W 004°40'2 3.4
2017-Nov-16 05:30N 47°52' W 004°38'3 6.1
2017-Nov-16 04:59N 47°51' W 004°33'5 8.6
2017-Nov-16 04:24N 47°49' W 004°27'3 8.3
2017-Nov-16 04:00N 47°47' W 004°23'4 7.1
2017-Nov-16 03:31N 47°47' W 004°18'1 0.2
2017-Nov-15 23:02N 47°48' W 004°17'0 0.0
2017-Nov-15 22:56N 47°48' W 004°17'1 0.2
2017-Nov-15 16:22N 47°47' W 004°18'3 9.0
2017-Nov-15 15:59N 47°44' W 004°16'9 4.2
2017-Nov-15 13:48N 47°37' W 004°06'2 1.3
2017-Nov-15 12:33N 47°37' W 004°04'5 3.0
2017-Nov-15 10:52N 47°34' W 003°58'1 2.2
2017-Nov-15 10:17N 47°35' W 003°57'1 2.3
2017-Nov-15 09:59N 47°35' W 003°56'2 3.0
2017-Nov-15 09:15N 47°34' W 003°53'1 3.0
2017-Nov-15 08:58N 47°33' W 003°52'0 0.8
2017-Nov-15 08:29N 47°33' W 003°52'2 3.4
2017-Nov-15 07:59N 47°34' W 003°54'1 2.7
2017-Nov-15 07:28N 47°34' W 003°56'11 5.8
2017-Nov-15 05:32N 47°41' W 004°09'2 8.6
2017-Nov-15 05:21N 47°42' W 004°11'3 8.9
2017-Nov-15 05:00N 47°44' W 004°15'4 7.2
2017-Nov-15 04:29N 47°47' W 004°17'1 0.3
2017-Nov-15 02:16N 47°48' W 004°17'1 0.1
2017-Nov-14 16:23N 47°47' W 004°18'21 3.3
2017-Nov-14 10:07N 47°33' W 003°54'0 3.5
2017-Nov-14 09:59N 47°33' W 003°54'1 1.6
2017-Nov-14 09:30N 47°34' W 003°53'1 2.8
2017-Nov-14 09:00N 47°34' W 003°51'2 3.4
2017-Nov-14 08:30N 47°33' W 003°53'1 2.8
2017-Nov-14 08:00N 47°34' W 003°55'1 2.0
2017-Nov-14 07:19N 47°34' W 003°57'14 7.0
2017-Nov-14 05:17N 47°43' W 004°13'3 8.3
2017-Nov-14 04:58N 47°45' W 004°16'  
2017-Nov-08 16:08N 47°47' W 004°17'1 9.4
2017-Nov-08 15:59N 47°46' W 004°19'4 7.5
2017-Nov-08 15:24N 47°48' W 004°25'4 8.8
2017-Nov-08 15:00N 47°52' W 004°26'2 3.0
2017-Nov-08 14:30N 47°53' W 004°26'2 3.1
2017-Nov-08 13:59N 47°55' W 004°28'1 1.6
2017-Nov-08 13:29N 47°54' W 004°27'1 3.1
2017-Nov-08 13:00N 47°54' W 004°29'1 2.9
2017-Nov-08 12:29N 47°55' W 004°27'1 1.6
2017-Nov-08 11:57N 47°54' W 004°29'1 1.4
2017-Nov-08 11:30N 47°55' W 004°29'1 2.9
2017-Nov-08 11:00N 47°54' W 004°27'2 3.0
2017-Nov-08 10:30N 47°54' W 004°29'1 2.3
2017-Nov-08 10:00N 47°55' W 004°28'1 2.1
2017-Nov-08 09:30N 47°54' W 004°27'1 2.6
2017-Nov-08 08:59N 47°55' W 004°29'1 2.6
2017-Nov-08 08:28N 47°54' W 004°27'1 2.7
2017-Nov-08 08:00N 47°54' W 004°29'1 2.5
2017-Nov-08 07:30N 47°55' W 004°28'2 2.6
2017-Nov-08 06:51N 47°53' W 004°27'1 3.0
2017-Nov-08 06:29N 47°53' W 004°28'1 2.6
2017-Nov-08 05:58N 47°51' W 004°27'2 4.2
2017-Nov-08 05:29N 47°50' W 004°26'4 7.5
2017-Nov-08 05:00N 47°46' W 004°23'4 0.3
2017-Nov-07 16:06N 47°47' W 004°17'1 9.0
2017-Nov-07 15:59N 47°47' W 004°18'  

Dump ship's entire track history